»·PEaware :: N805TB KCPR-KFNL

N805TB :: KCPR-KFNL

FLIGHT INFORMATION

Flight Status: Arrived
Operator: Privately registered:
United States
More flights under this callsign
Pilot: Shane N. (25833)
Aircraft: SOCATA TBM-900
(TBM9)
More flights by this aircraft type
Origin: KCPR Natrona Co Intl
United States
Destination: KFNL Ft Collins-Loveland Mun
United States
More flights between these airports :: More routes between these airports
Route: ALCOS6 MBW BARGR V4 GLL
File this flight plan on PilotEdge
Remarks:
Altitude:
(Current/Filed)
25,000ft
Speed:
(Current/Filed)
285kts
Departed: 25-Mar-20 08:32 PM
Arrived: 25-Mar-20 09:20 PM
Distance/Time
Traveled:
161nm/0:48
Distance/Time
To Go:
Arrived

Flight Plot

Page will automatically refresh every two minutes.

Flight plan parsing failed; only flown route is shown


Map Options




Map Legend


Flown Route
Filed Route
Departure Airport
Arrival Airport
Navaid (VOR, NDB)
Fix

Horizontal Profiles

Position Reports

Time Latitude Longitude Heading Altitude Ground
Speed
25-Mar-20 20:14 42.901712 -106.458951 221 5328ft 0kts
25-Mar-20 20:15 42.901712 -106.458951 221 5328ft 0kts
25-Mar-20 20:16 42.901712 -106.458951 221 5328ft 0kts
25-Mar-20 20:17 42.901712 -106.458951 221 5328ft 0kts
25-Mar-20 20:18 42.901712 -106.458951 221 5328ft 0kts
25-Mar-20 20:19 42.901712 -106.458951 221 5328ft 0kts
25-Mar-20 20:20 42.901712 -106.458951 221 5328ft 0kts
25-Mar-20 20:21 42.901712 -106.458951 221 5328ft 0kts
25-Mar-20 20:22 42.901712 -106.458951 221 5328ft 0kts
25-Mar-20 20:23 42.901712 -106.458951 221 5328ft 0kts
25-Mar-20 20:24 42.901712 -106.458951 221 5328ft 0kts
25-Mar-20 20:25 42.901712 -106.458951 221 5328ft 0kts
25-Mar-20 20:26 42.901702 -106.458964 221 5328ft 0kts
25-Mar-20 20:27 42.902380 -106.459767 10 5328ft 13kts
25-Mar-20 20:28 42.905572 -106.456297 43 5328ft 12kts
25-Mar-20 20:29 42.907049 -106.452196 43 5329ft 12kts
25-Mar-20 20:30 42.908141 -106.450764 43 5327ft 9kts
25-Mar-20 20:31 42.908156 -106.478868 262 5868ft 131kts
25-Mar-20 20:32 42.876326 -106.492604 210 7982ft 124kts
25-Mar-20 20:33 42.845725 -106.521842 216 10113ft 128kts
25-Mar-20 20:34 42.816214 -106.551147 218 12700ft 124kts
25-Mar-20 20:35 42.781987 -106.571260 163 14084ft 199kts
25-Mar-20 20:36 42.727571 -106.537503 165 15650ft 194kts
25-Mar-20 20:37 42.678297 -106.507317 171 18249ft 183kts
25-Mar-20 20:38 42.631239 -106.478494 176 20863ft 176kts
25-Mar-20 20:39 42.587401 -106.451578 183 23420ft 157kts
25-Mar-20 20:40 42.546012 -106.426875 181 24880ft 189kts
25-Mar-20 20:41 42.487754 -106.391083 175 24852ft 244kts
25-Mar-20 20:42 42.421378 -106.350625 174 24838ft 259kts
25-Mar-20 20:43 42.352973 -106.309095 175 24819ft 261kts
25-Mar-20 20:44 42.285412 -106.268205 175 24820ft 261kts
25-Mar-20 20:45 42.216508 -106.226591 175 24823ft 261kts
25-Mar-20 20:46 42.147772 -106.185195 175 24844ft 261kts
25-Mar-20 20:47 42.078724 -106.143686 175 24859ft 261kts
25-Mar-20 20:48 42.010037 -106.102518 174 24857ft 261kts
25-Mar-20 20:49 41.941953 -106.061789 175 24855ft 261kts
25-Mar-20 20:50 41.875111 -106.021907 175 24866ft 262kts
25-Mar-20 20:51 41.809082 -105.968736 162 24867ft 283kts
25-Mar-20 20:52 41.742801 -105.903997 161 24026ft 281kts
25-Mar-20 20:53 41.678126 -105.841045 160 22483ft 272kts
25-Mar-20 20:54 41.616423 -105.781115 158 20974ft 263kts
25-Mar-20 20:55 41.557445 -105.724017 157 19349ft 252kts
25-Mar-20 20:56 41.500510 -105.669023 154 17290ft 240kts
25-Mar-20 20:57 41.445764 -105.616242 152 15252ft 235kts
25-Mar-20 20:58 41.391859 -105.564306 150 14036ft 234kts
25-Mar-20 20:59 41.335879 -105.510513 150 14033ft 249kts
25-Mar-20 21:00 41.277894 -105.454934 149 14029ft 253kts
25-Mar-20 21:01 41.220458 -105.400023 149 14029ft 254kts
25-Mar-20 21:02 41.161931 -105.344201 150 14025ft 254kts
25-Mar-20 21:03 41.102125 -105.287262 150 14019ft 253kts
25-Mar-20 21:04 41.042413 -105.230540 151 14014ft 252kts
25-Mar-20 21:05 40.983884 -105.175093 152 14009ft 251kts
25-Mar-20 21:06 40.925378 -105.119863 152 13749ft 255kts
25-Mar-20 21:07 40.873798 -105.055350 142 12976ft 261kts
25-Mar-20 21:08 40.820853 -104.985993 141 11196ft 244kts
25-Mar-20 21:09 40.776134 -104.927667 142 11015ft 228kts
25-Mar-20 21:10 40.732891 -104.956560 248 10119ft 234kts
25-Mar-20 21:11 40.701357 -105.027177 240 9126ft 214kts
25-Mar-20 21:12 40.669151 -105.097149 227 8162ft 222kts
25-Mar-20 21:13 40.611711 -105.087109 164 8091ft 202kts
25-Mar-20 21:14 40.563117 -105.064485 159 7099ft 173kts
25-Mar-20 21:15 40.519476 -105.044078 159 6152ft 135kts
25-Mar-20 21:16 40.494182 -105.031700 157 5760ft 87kts
25-Mar-20 21:17 40.472414 -105.022012 158 5215ft 81kts
25-Mar-20 21:18 40.453278 -105.013190 161 4995ft 44kts
25-Mar-20 21:19 40.449425 -105.009200 69 5008ft 10kts
25-Mar-20 21:20 40.449005 -105.007641 155 5012ft 0kts

Navigation Log

Ident Type
Flight plan parsing failed, navigation log unavailable